NCAR-RAP Real-Time Weather Data

Output produced by METARs form (17 December 2018  06:58 UTC)
found at http://weather.rap.ucar.edu/surface/
 
RJSI 170600Z VRB02KT 9999 -SHRA FEW030 SCT050 BKN070 07/M01 Q1004
RJSI 170500Z VRB02KT 9999 FEW030 BKN060 08/02 Q1004
RJSI 170400Z 03006KT 9999 FEW030 SCT060 09/00 Q1004
RJSI 170300Z 02003KT 340V060 9999 FEW030 07/02 Q1005
RJSI 170200Z 01006KT 9999 FEW030 SCT/// 06/02 Q1006
RJSI 170100Z 02005KT 9999 FEW003 SCT040 04/02 Q1008
RJSI 170000Z 02004KT 9999 FEW003 SCT040 02/01 Q1009
RJSI 162300Z 35002KT 9999 FEW003 SCT040 BKN060 01/00 Q1010
RJSI 162240Z VRB02KT 9999 FEW003 SCT040 BKN/// 00/M00 Q1010 RMK 1ST003 3CU040 A2983
RJSI 161000Z 29002KT 9999 FEW050 SCT160 BKN/// 00/M02 Q1016
RJSI 160900Z 29002KT 9999 FEW050 SCT160 BKN/// 02/M02 Q1017
RJSI 160800Z 27002KT 9999 FEW050 SCT160 BKN/// 02/M02 Q1018
RJSI 160700Z 18004KT 9999 FEW050 BKN160 BKN/// 04/M02 Q1019
RJSI 160600Z 18008KT 9999 FEW030 SCT050 BKN160 04/M02 Q1019
RJSI 160500Z 20009KT 9999 FEW030 SCT050 BKN170 06/M03 Q1020
RJSI 160400Z VRB01KT 9999 FEW030 SCT050 BKN/// 04/M02 Q1020
RJSI 160300Z 27004KT 230V310 9999 FEW030 SCT040 BKN/// 04/M02 Q1021
RJSI 160200Z 18004KT 9999 FEW020 SCT040 BKN050 01/M02 Q1023
RJSI 160100Z 23003KT 200V260 9999 FEW020 SCT040 BKN050 01/M02 Q1023
RJSI 160000Z 19004KT 9999 FEW020 SCT040 BKN050 00/M02 Q1024
RJSI 151000Z VRB02KT 9999 FEW030 SCT040 BKN050 M00/M06 Q1026
RJSI 150900Z VRB02KT 9999 FEW030 SCT040 BKN050 M01/M05 Q1026
RJSI 150800Z VRB01KT 9999 FEW030 SCT040 BKN050 M00/M06 Q1026
RJSI 150700Z 03002KT 9999 FEW030 SCT040 BKN050 01/M07 Q1025
RJSI 150600Z 30006KT 280V340 9999 FEW030 SCT040 02/M07 Q1025
RJSI 150500Z 28008KT 220V310 9999 FEW030 BKN040 03/M05 Q1025
RJSI 150400Z VRB01KT 9999 -SHSN FEW030 BKN040 03/M08 Q1024
RJSI 150300Z VRB02KT 9999 FEW030 SCT040 01/M06 Q1025
RJSI 150200Z VRB02KT 9999 FEW030 SCT040 00/M06 Q1025
RJSI 150100Z VRB02KT 9999 FEW030 M02/M07 Q1026
RJSI 150000Z VRB02KT 9999 FEW030 SCT040 M04/M08 Q1026
RJSI 142300Z 04004KT 9999 FEW020 SCT040 M06/M09 Q1026
RJSI 142240Z VRB01KT 9999 FEW020 SCT040 M06/M09 Q1025 RMK 1CU020 3CU040 A3029